LIPELIPR

Guest
Details From LIPE - Bologna
To LIPR - Rimini Mil
Flight Number -
Tags Routegen Generated
Created
Modified
Stats Distance 63 nm / 117 km
Max Altitude 300 ft / 91 m
Waypoints 7
Social Downloads 1
Likes 0
Share VATSIM

Download

Looking for another format? Having issues loading an existing format? Contact us
Advertisement - Login to hide

Notes

Departing runway 11 LIPE. Arriving runway 12 LIPR.

Route

LIPE +44.50_+011.39 +44.33_+011.85 +44.13_+012.40 +44.12_+012.42 +44.12_+012.44 LIPR

ID Type Via Altitude Latitude Longitude Leg Dist Tot Dist Heading (true) Name
O LIPE APT - 0 ft / 0 m 44.52977˚ 11.30442˚ - 0 nm - -
+44.50_+011.39 DME - 300 ft / 91 m 44.49710˚ 11.39497˚ 4 nm 4 nm 117° / 117° -
+44.33_+011.85 DME - 300 ft / 91 m 44.33396˚ 11.84563˚ 21 nm 26 nm 117° / 117° -
+44.13_+012.40 DME - 300 ft / 91 m 44.13173˚ 12.40290˚ 26 nm 52 nm 117° / 117° -
+44.12_+012.42 DME - 300 ft / 91 m 44.12498˚ 12.42074˚ 0 nm 53 nm 118° / 118° -
+44.12_+012.44 DME - 300 ft / 91 m 44.11714˚ 12.43769˚ 0 nm 54 nm 123° / 123° -
O LIPR APT - 0 ft / 0 m 44.02853˚ 12.59696˚ 8 nm 63 nm 128° / 128° -

Altitude Profile

Advertisement - Login to hide

LIPE

Details ICAO LIPE (BLQ)
Name BOLOGNA
Region Italy
Timezone Europe/Rome (UTC+1.0)
Stats Elevation 123 ft / 37 m (AMSL)
Location 44.535446° 11.288662°
Runways 1
Magnetic Variation 2.919° E

METAR

LIPE 171320Z 31004KT 260V020 CAVOK 08/M01 Q1019

Decode

TAF

TAF LIPE 171100Z 1712/1812 VRB06KT 9999 FEW030

Decode

Departure Runways

ID Width Length Bearing (true) Bearing (mag) Surface Threshold Offset Overrun Length
12 148 ft / 45 m 9,185 ft / 2,800 m 116.78° 113.86° Asphalt 1,007 ft / 307 m 0 ft / 0 m
30 148 ft / 45 m 9,185 ft / 2,800 m 296.81° 293.89° Asphalt 1,188 ft / 362 m 200 ft / 61 m

LIPR

Details ICAO LIPR (RMI)
Name Rimini Mil
Region Italy
Timezone Europe/Rome (UTC+1.0)
Stats Elevation 41 ft / 12 m (AMSL)
Location 44.020286° 12.611746°
Runways 1
Magnetic Variation 3.168° E

METAR

LIPR 171315Z 29009KT 7000 NSC 08/02 Q1018

Decode

TAF

Not found

Destination Runways

ID Width Length Bearing (true) Bearing (mag) Surface Threshold Offset Overrun Length
13 148 ft / 45 m 9,818 ft / 2,992 m 127.79° 124.62° Asphalt 1,030 ft / 314 m 846 ft / 258 m
31 148 ft / 45 m 9,818 ft / 2,992 m 307.81° 304.64° Asphalt 1,006 ft / 307 m 376 ft / 115 m

Approach Navaids

Runway Type Ident Frequency Range Bearing (true) Bearing (mag) Slope Elevation
31 Localiser MIR 109.30 MHz 18 nm / 33 km 307.77° 304.60° - 41 ft / 12 m (AMSL)
31 Glidescope MIR 109.30 MHz 10 nm / 19 km 307.80° 304.63° 3.00° 41 ft / 12 m (AMSL)

Popular Alternatives